Time;durP1;ratioP1;P1;durP2;ratioP2;P2;SDS_P1;SDS_P2;PMS_P1;PMS_P2;Temp;Humidity;BMP_temperature;BMP_pressure;BME280_temperature;BME280_humidity;BME280_pressure;Samples;Min_cycle;Max_cycle;Signal;HPM_P1;HPM_P2
2022/01/14 00:01:54;;;;;;;22.98;14.10;;;-0.30;63.60;;;;;;5072845;28;20491;-20
2022/01/14 00:04:20;;;;;;;20.05;10.20;;;-0.30;61.70;;;;;;5072498;28;20488;-19
2022/01/14 00:06:46;;;;;;;18.50;10.90;;;-0.30;60.70;;;;;;5072987;28;20353;-19
2022/01/14 00:09:14;;;;;;;16.42;8.50;;;-0.30;60.10;;;;;;5073068;28;20029;-19
2022/01/14 00:11:55;;;;;;;17.52;9.35;;;-0.30;60.00;;;;;;5073316;28;20369;-19
2022/01/14 00:16:51;;;;;;;21.55;11.60;;;-0.30;59.50;;;;;;5076865;28;20047;-18
2022/01/14 00:19:17;;;;;;;36.13;21.95;;;-0.30;59.40;;;;;;5076430;28;20039;-20
2022/01/14 00:21:45;;;;;;;49.13;26.55;;;-0.30;59.30;;;;;;5075301;28;20020;-20
2022/01/14 00:32:11;;;;;;;22.10;11.73;;;-0.40;60.00;;;;;;5076620;28;20078;-20
2022/01/14 00:34:38;;;;;;;16.60;8.65;;;-0.40;59.50;;;;;;5076420;28;20031;-20
2022/01/14 00:37:04;;;;;;;21.15;11.55;;;-0.40;59.00;;;;;;5076154;28;20036;-19
2022/01/14 00:39:31;;;;;;;15.43;8.65;;;-0.40;58.90;;;;;;5076385;28;20052;-20
2022/01/14 00:41:58;;;;;;;24.40;14.20;;;-0.40;58.70;;;;;;5076133;28;20028;-19
2022/01/14 00:44:24;;;;;;;30.17;17.13;;;-0.40;59.20;;;;;;5075907;28;20090;-19
2022/01/14 00:46:50;;;;;;;12.73;7.30;;;-0.50;59.60;;;;;;5076010;28;20104;-19
2022/01/14 00:49:19;;;;;;;36.00;20.90;;;-0.50;58.90;;;;;;5076080;28;20039;-19
2022/01/14 00:51:45;;;;;;;50.70;29.35;;;-0.50;59.10;;;;;;5076234;28;20035;-19
2022/01/14 00:54:12;;;;;;;33.78;19.45;;;-0.50;60.30;;;;;;5075927;28;20040;-20
2022/01/14 00:59:15;;;;;;;28.52;15.07;;;-0.60;59.90;;;;;;5075843;28;20078;-19
2022/01/14 01:01:45;;;;;;;18.20;8.73;;;-0.60;60.00;;;;;;5075843;28;20545;-20
2022/01/14 01:04:14;;;;;;;29.10;15.27;;;-0.70;60.00;;;;;;5075994;28;20082;-20
2022/01/14 01:06:41;;;;;;;67.88;36.65;;;-0.70;60.30;;;;;;5075592;28;20548;-19
2022/01/14 01:09:10;;;;;;;55.00;29.33;;;-0.70;60.90;;;;;;5075682;28;20025;-19
2022/01/14 01:11:42;;;;;;;32.03;17.40;;;-0.70;63.30;;;;;;5075565;28;20527;-20
2022/01/14 01:14:16;;;;;;;25.85;15.18;;;-0.70;62.40;;;;;;5075927;28;20035;-19
2022/01/14 01:16:42;;;;;;;;;;;-0.80;63.30;;;;;;5075904;28;20418;-20
2022/01/14 01:19:08;;;;;;;66.75;33.67;;;-0.80;65.90;;;;;;5075306;28;19951;-19
2022/01/14 01:21:36;;;;;;;31.40;16.38;;;-0.80;68.80;;;;;;5075658;28;20020;-20
2022/01/14 01:24:04;;;;;;;58.10;32.05;;;-0.80;65.70;;;;;;5075456;28;20021;-20
2022/01/14 01:26:34;;;;;;;20.80;11.07;;;-0.80;66.40;;;;;;5075445;28;20029;-19
2022/01/14 01:31:37;;;;;;;29.08;15.73;;;-0.70;63.70;;;;;;5075350;28;20447;-19
2022/01/14 01:34:08;;;;;;;26.83;14.00;;;-0.70;63.20;;;;;;5075701;28;20103;-19
2022/01/14 01:36:35;;;;;;;24.92;12.20;;;-0.60;61.80;;;;;;5075111;28;20036;-19
2022/01/14 01:39:04;;;;;;;57.05;29.08;;;-0.60;62.00;;;;;;5075327;28;20511;-19
2022/01/14 01:41:30;;;;;;;25.60;12.65;;;-0.50;61.40;;;;;;5075041;28;20063;-19
2022/01/14 01:43:59;;;;;;;36.40;18.83;;;-0.40;62.20;;;;;;5075187;28;20392;-20
2022/01/14 01:46:25;;;;;;;28.35;14.77;;;-0.40;61.30;;;;;;5074668;28;20027;-19
2022/01/14 01:48:53;;;;;;;24.17;14.52;;;-0.40;62.20;;;;;;5075276;28;20021;-20
2022/01/14 01:51:20;;;;;;;19.77;10.85;;;-0.30;60.80;;;;;;5073630;28;20020;-19
2022/01/14 01:53:47;;;;;;;65.65;34.88;;;-0.30;60.40;;;;;;5074509;28;20057;-19
2022/01/14 01:56:15;;;;;;;29.90;16.05;;;-0.30;62.10;;;;;;5074419;28;20078;-20
2022/01/14 01:58:41;;;;;;;50.05;27.70;;;-0.30;61.40;;;;;;5074606;28;20024;-19
2022/01/14 02:01:08;;;;;;;27.20;16.35;;;-0.30;60.50;;;;;;5074949;28;20040;-18
2022/01/14 02:03:36;;;;;;;23.80;12.57;;;-0.30;60.80;;;;;;5073360;28;20021;-19
2022/01/14 02:06:03;;;;;;;22.38;10.38;;;-0.40;60.20;;;;;;5074612;28;20480;-19
2022/01/14 02:08:29;;;;;;;48.45;25.83;;;-0.30;60.00;;;;;;5074296;28;20028;-19
2022/01/14 02:10:56;;;;;;;33.55;16.63;;;-0.40;61.30;;;;;;5074766;28;20036;-19
2022/01/14 02:13:23;;;;;;;24.40;13.70;;;-0.40;60.90;;;;;;5074417;28;20032;-19
2022/01/14 02:16:12;;;;;;;27.02;14.70;;;-0.50;60.40;;;;;;5073134;28;20384;-19
2022/01/14 02:18:47;;;;;;;27.13;13.20;;;-0.50;60.00;;;;;;5073932;28;20060;-19
2022/01/14 02:24:20;;;;;;;62.63;31.15;;;-0.50;60.30;;;;;;5074523;28;20039;-20
2022/01/14 02:26:50;;;;;;;66.40;33.42;;;-0.50;62.30;;;;;;5073111;28;20055;-19
2022/01/14 02:29:18;;;;;;;35.10;17.63;;;-0.60;63.30;;;;;;5074406;28;20037;-19
2022/01/14 02:31:45;;;;;;;25.10;12.38;;;-0.70;62.40;;;;;;5074371;28;20024;-19
2022/01/14 02:34:13;;;;;;;32.08;16.25;;;-0.70;61.80;;;;;;5074041;28;20085;-20
2022/01/14 02:36:41;;;;;;;44.28;24.23;;;-0.70;61.20;;;;;;5073388;28;20032;-20
2022/01/14 02:39:08;;;;;;;36.55;19.30;;;-0.80;61.20;;;;;;5074984;28;20083;-19
2022/01/14 02:41:35;;;;;;;41.72;22.63;;;-0.80;61.70;;;;;;5073837;28;20541;-19
2022/01/14 02:44:09;;;;;;;18.35;9.30;;;-0.80;62.10;;;;;;5074040;28;20021;-19
2022/01/14 02:46:49;;;;;;;28.25;14.68;;;-0.90;61.00;;;;;;5074745;28;20052;-19
2022/01/14 02:49:15;;;;;;;20.08;9.70;;;-0.90;60.80;;;;;;5073919;28;20476;-20
2022/01/14 02:51:41;;;;;;;36.17;20.05;;;-0.90;60.90;;;;;;5073666;28;20065;-19
2022/01/14 02:54:13;;;;;;;19.45;12.00;;;-1.00;60.90;;;;;;5073398;28;20076;-19
2022/01/14 02:56:43;;;;;;;27.90;15.98;;;-1.00;60.70;;;;;;5073837;28;20028;-19
2022/01/14 02:59:11;;;;;;;24.15;13.85;;;-1.00;60.70;;;;;;5073532;28;20012;-19
2022/01/14 03:01:37;;;;;;;37.15;19.73;;;-1.00;61.00;;;;;;5073577;28;20496;-19
2022/01/14 03:04:04;;;;;;;24.75;13.00;;;-1.10;60.90;;;;;;5073524;28;20035;-19
2022/01/14 03:06:31;;;;;;;32.47;17.58;;;-1.10;61.60;;;;;;5072003;28;20074;-19
2022/01/14 03:08:58;;;;;;;20.50;11.05;;;-1.10;61.20;;;;;;5073719;28;20039;-19
2022/01/14 03:11:35;;;;;;;55.65;30.67;;;-1.10;61.50;;;;;;5073341;28;20508;-19
2022/01/14 03:14:04;;;;;;;37.70;20.52;;;-1.20;62.30;;;;;;5073341;28;20035;-19
2022/01/14 03:16:37;;;;;;;33.42;17.50;;;-1.20;64.80;;;;;;5073054;28;20035;-19
2022/01/14 03:19:08;;;;;;;21.38;11.77;;;-1.30;66.70;;;;;;5073093;28;20028;-20
2022/01/14 03:21:40;;;;;;;15.65;9.27;;;-1.30;63.70;;;;;;5073543;28;20021;-19
2022/01/14 03:26:57;;;;;;;15.10;8.55;;;-1.20;61.90;;;;;;5081566;28;20108;-19
2022/01/14 03:29:22;;;;;;;18.55;8.95;;;-1.20;61.70;;;;;;5073323;28;20056;-19
2022/01/14 03:31:49;;;;;;;40.10;23.23;;;-1.20;61.50;;;;;;5073414;28;20146;-19
2022/01/14 03:34:15;;;;;;;15.38;7.60;;;-1.10;62.00;;;;;;5072922;28;20480;-20
2022/01/14 03:36:41;;;;;;;16.83;8.27;;;-1.10;61.40;;;;;;5073006;28;20554;-19
2022/01/14 03:39:07;;;;;;;34.13;17.42;;;-1.10;61.20;;;;;;5071820;28;20537;-19
2022/01/14 03:41:33;;;;;;;27.05;12.80;;;-1.10;61.30;;;;;;5073273;28;20552;-19
2022/01/14 03:44:00;;;;;;;36.63;21.02;;;-1.10;61.00;;;;;;5072993;28;20128;-19
2022/01/14 03:46:26;;;;;;;24.13;12.80;;;-1.00;61.10;;;;;;5073082;28;20032;-20
2022/01/14 03:48:52;;;;;;;15.90;8.43;;;-1.00;61.30;;;;;;5073218;28;20025;-19
2022/01/14 03:51:20;;;;;;;27.17;14.63;;;-1.10;60.80;;;;;;5077472;28;20056;-19
2022/01/14 03:53:48;;;;;;;41.53;21.83;;;-1.00;60.60;;;;;;5077276;28;20056;-19
2022/01/14 03:56:15;;;;;;;31.50;16.33;;;-1.10;60.80;;;;;;5077143;28;20021;-19
2022/01/14 03:58:42;;;;;;;32.67;17.60;;;-1.10;60.60;;;;;;5075682;28;20040;-19
2022/01/14 04:01:11;;;;;;;27.33;14.85;;;-1.10;60.50;;;;;;5077176;28;20044;-19
2022/01/14 04:03:38;;;;;;;18.15;8.73;;;-1.10;61.00;;;;;;5076793;28;20028;-19
2022/01/14 04:06:05;;;;;;;41.85;26.08;;;-1.10;60.90;;;;;;5077161;28;20384;-19
2022/01/14 04:08:33;;;;;;;19.15;9.80;;;-1.10;60.90;;;;;;5076939;28;20016;-19
2022/01/14 04:11:01;;;;;;;15.75;8.40;;;-1.20;61.20;;;;;;5075523;28;20024;-19
2022/01/14 04:13:43;;;;;;;45.85;24.05;;;-1.20;60.80;;;;;;5077310;28;20028;-20
2022/01/14 04:16:10;;;;;;;33.25;18.52;;;-1.20;61.20;;;;;;5077264;28;20056;-20
2022/01/14 04:18:37;;;;;;;47.38;23.42;;;-1.30;63.40;;;;;;5076309;28;20033;-20
2022/01/14 04:21:05;;;;;;;21.75;11.93;;;-1.30;63.20;;;;;;5076542;28;20016;-19
2022/01/14 04:23:31;;;;;;;26.52;14.63;;;-1.30;62.20;;;;;;5076545;28;20036;-19
2022/01/14 04:26:00;;;;;;;20.17;11.65;;;-1.30;61.80;;;;;;5076774;28;20033;-19
2022/01/14 04:28:33;;;;;;;15.50;7.55;;;-1.40;61.80;;;;;;5076470;28;20078;-19
2022/01/14 04:31:00;;;;;;;26.75;13.10;;;-1.30;61.60;;;;;;5076457;28;20029;-19
2022/01/14 04:33:31;;;;;;;11.40;6.20;;;-1.40;62.10;;;;;;5076212;28;20032;-19
2022/01/14 04:36:01;;;;;;;10.65;6.47;;;-1.40;61.60;;;;;;5076286;28;20021;-20
2022/01/14 04:38:28;;;;;;;14.23;6.38;;;-1.40;61.30;;;;;;5075964;28;20063;-20
2022/01/14 04:40:55;;;;;;;17.40;11.73;;;-1.40;61.20;;;;;;5076591;28;20028;-20
2022/01/14 04:43:22;;;;;;;34.55;20.13;;;-1.50;61.00;;;;;;5076147;28;20059;-20
2022/01/14 04:48:21;;;;;;;14.90;7.72;;;-1.50;62.60;;;;;;5075827;28;20056;-20
2022/01/14 04:50:48;;;;;;;18.65;9.57;;;-1.50;61.70;;;;;;5075971;28;20040;-20
2022/01/14 04:53:16;;;;;;;29.80;15.23;;;-1.50;61.10;;;;;;5075722;28;20401;-20
2022/01/14 04:55:42;;;;;;;33.53;20.08;;;-1.50;61.30;;;;;;5075939;28;20013;-20
2022/01/14 04:58:10;;;;;;;23.25;13.25;;;-1.60;62.40;;;;;;5074588;28;20090;-20
2022/01/14 05:00:37;;;;;;;20.85;11.60;;;-1.60;61.90;;;;;;5075265;28;20048;-20
2022/01/14 05:03:04;;;;;;;28.05;15.32;;;-1.60;61.70;;;;;;5076356;28;20431;-20
2022/01/14 05:05:33;;;;;;;21.30;12.25;;;-1.60;61.70;;;;;;5075809;28;20090;-20
2022/01/14 05:08:00;;;;;;;16.00;8.13;;;-1.60;61.80;;;;;;5076242;28;20020;-19
2022/01/14 05:12:55;;;;;;;53.95;31.17;;;-1.70;61.30;;;;;;5075924;28;20476;-19
2022/01/14 05:15:22;;;;;;;21.25;11.23;;;-1.70;62.50;;;;;;5075789;28;20115;-19
2022/01/14 05:17:50;;;;;;;17.65;9.38;;;-1.70;62.20;;;;;;5075336;28;20033;-20
2022/01/14 05:20:19;;;;;;;11.70;6.20;;;-1.70;62.00;;;;;;5075366;28;20021;-20
2022/01/14 05:22:46;;;;;;;22.25;11.98;;;-1.70;61.60;;;;;;5074353;28;20059;-20
2022/01/14 05:25:14;;;;;;;14.55;7.53;;;-1.80;61.90;;;;;;5075696;28;20028;-20
2022/01/14 05:27:41;;;;;;;20.65;10.00;;;-1.70;62.10;;;;;;5075868;28;20369;-20
2022/01/14 05:30:09;;;;;;;12.75;7.18;;;-1.80;61.90;;;;;;5075583;28;20028;-19
2022/01/14 05:32:36;;;;;;;23.60;12.75;;;-1.80;61.60;;;;;;5074914;28;20384;-19
2022/01/14 05:35:03;;;;;;;39.30;21.48;;;-1.80;61.70;;;;;;5075632;28;20052;-19
2022/01/14 05:37:32;;;;;;;44.20;23.83;;;-1.80;62.00;;;;;;5075223;28;20515;-19
2022/01/14 05:39:58;;;;;;;35.15;16.92;;;-1.80;62.60;;;;;;5073593;28;20058;-20
2022/01/14 05:42:24;;;;;;;26.25;13.40;;;-1.80;62.70;;;;;;5073654;28;20494;-20
2022/01/14 05:44:51;;;;;;;56.85;31.85;;;-1.80;62.90;;;;;;5075313;28;20036;-20
2022/01/14 05:47:17;;;;;;;22.77;11.80;;;-1.80;67.40;;;;;;5074965;28;20024;-20
2022/01/14 05:49:45;;;;;;;14.07;8.10;;;-1.80;64.40;;;;;;5075205;28;20029;-20
2022/01/14 05:52:11;;;;;;;21.33;10.57;;;-1.70;63.90;;;;;;5075195;28;20016;-20
2022/01/14 05:54:37;;;;;;;24.10;13.07;;;-1.70;63.30;;;;;;5074474;28;20052;-19
2022/01/14 05:57:03;;;;;;;20.30;10.57;;;-1.60;63.00;;;;;;5056342;28;20484;-20
2022/01/14 05:59:31;;;;;;;25.58;14.05;;;-1.50;62.90;;;;;;5075014;28;20056;-20
2022/01/14 06:01:57;;;;;;;20.98;12.23;;;-1.50;63.30;;;;;;5074929;28;20070;-20
2022/01/14 06:04:23;;;;;;;37.75;21.08;;;-1.40;62.60;;;;;;5074325;28;20468;-20
2022/01/14 06:06:49;;;;;;;35.20;19.92;;;-1.30;63.40;;;;;;5074565;28;20036;-20
2022/01/14 06:09:14;;;;;;;19.85;11.00;;;-1.30;64.70;;;;;;5075077;28;20073;-20
2022/01/14 06:11:42;;;;;;;28.30;14.77;;;-1.30;64.50;;;;;;5073646;28;20033;-20
2022/01/14 06:14:08;;;;;;;29.83;14.27;;;-1.20;64.60;;;;;;5074381;28;20354;-20
2022/01/14 06:16:42;;;;;;;23.65;13.35;;;-1.20;63.20;;;;;;5074245;28;20074;-19
2022/01/14 06:19:08;;;;;;;26.25;14.02;;;-1.20;62.90;;;;;;5074243;28;20035;-19
2022/01/14 06:21:36;;;;;;;18.13;10.63;;;-1.20;62.90;;;;;;5074606;28;20103;-19
2022/01/14 06:24:05;;;;;;;11.00;6.47;;;-1.20;62.50;;;;;;5074499;28;20039;-19
2022/01/14 06:26:31;;;;;;;38.70;22.38;;;-1.20;62.10;;;;;;5074286;28;20165;-19
2022/01/14 06:28:57;;;;;;;20.55;10.27;;;-1.20;62.00;;;;;;5074579;28;20507;-19
2022/01/14 06:31:23;;;;;;;51.28;30.45;;;-1.30;62.20;;;;;;5039076;28;20408;-19
2022/01/14 06:33:49;;;;;;;16.15;8.45;;;-1.30;62.90;;;;;;5072686;28;20039;-19
2022/01/14 06:36:15;;;;;;;13.02;7.25;;;-1.30;62.70;;;;;;5073897;28;20064;-19
2022/01/14 06:38:41;;;;;;;16.30;7.88;;;-1.30;61.60;;;;;;5073902;28;20057;-19
2022/01/14 06:41:10;;;;;;;12.88;6.35;;;-1.30;61.70;;;;;;5073862;28;20534;-19
2022/01/14 06:43:36;;;;;;;13.63;6.43;;;-1.30;61.50;;;;;;5074140;28;20032;-19
2022/01/14 06:46:05;;;;;;;11.77;5.97;;;-1.30;61.70;;;;;;5074133;28;20494;-20
2022/01/14 06:48:31;;;;;;;26.15;14.75;;;-1.40;61.40;;;;;;5073751;28;20166;-20
2022/01/14 06:50:58;;;;;;;18.73;10.80;;;-1.40;61.90;;;;;;5073975;28;20099;-20
2022/01/14 06:53:24;;;;;;;10.98;5.80;;;-1.40;62.00;;;;;;5073489;28;20063;-19
2022/01/14 06:55:50;;;;;;;16.83;9.07;;;-1.50;61.90;;;;;;5055315;28;20037;-20
2022/01/14 06:58:16;;;;;;;42.72;22.90;;;-1.50;61.70;;;;;;5073587;28;20036;-19
2022/01/14 07:00:43;;;;;;;24.60;12.18;;;-1.50;61.80;;;;;;5073483;28;20060;-20
2022/01/14 07:03:10;;;;;;;38.83;22.05;;;-1.50;62.60;;;;;;5073682;28;20029;-19
2022/01/14 07:05:36;;;;;;;20.23;10.95;;;-1.50;62.40;;;;;;5073764;28;20107;-20
2022/01/14 07:08:05;;;;;;;12.65;6.45;;;-1.50;62.70;;;;;;5073400;28;20095;-20
2022/01/14 07:10:36;;;;;;;24.63;12.93;;;-1.60;62.10;;;;;;5073193;28;20020;-20
2022/01/14 07:13:04;;;;;;;25.42;14.02;;;-1.50;62.10;;;;;;5073428;28;20028;-20
2022/01/14 07:15:30;;;;;;;14.13;7.93;;;-1.60;62.40;;;;;;5073254;28;20029;-20
2022/01/14 07:17:57;;;;;;;12.25;6.68;;;-1.60;62.20;;;;;;5073127;28;20033;-19
2022/01/14 07:20:23;;;;;;;20.90;12.40;;;-1.60;62.40;;;;;;5071857;28;20115;-19
2022/01/14 07:22:52;;;;;;;13.27;7.10;;;-1.60;62.50;;;;;;5073759;28;20059;-20
2022/01/14 07:25:19;;;;;;;16.10;9.95;;;-1.60;62.50;;;;;;5073817;28;20112;-20
2022/01/14 07:27:46;;;;;;;37.72;20.30;;;-1.60;62.50;;;;;;5071943;28;20020;-20
2022/01/14 07:30:16;;;;;;;41.42;23.13;;;-1.50;62.70;;;;;;5073090;28;20023;-20
2022/01/14 07:32:45;;;;;;;12.18;6.70;;;-1.50;62.90;;;;;;5073374;28;20048;-20
2022/01/14 07:35:12;;;;;;;18.20;10.80;;;-1.40;63.50;;;;;;5073087;28;20020;-20
2022/01/14 07:37:38;;;;;;;12.23;6.30;;;-1.30;62.90;;;;;;5073000;28;20028;-19
2022/01/14 07:40:06;;;;;;;11.50;5.93;;;-1.20;62.80;;;;;;5071876;28;20131;-19
2022/01/14 07:42:33;;;;;;;28.88;16.80;;;-1.10;62.40;;;;;;5072971;28;20052;-19
2022/01/14 07:44:59;;;;;;;12.65;7.18;;;-0.90;62.20;;;;;;5071861;28;20102;-20
2022/01/14 07:47:26;;;;;;;12.52;6.47;;;-0.80;62.00;;;;;;5073005;28;20024;-20
2022/01/14 07:49:54;;;;;;;16.02;9.35;;;-0.70;61.80;;;;;;5073310;28;20040;-19
2022/01/14 07:52:20;;;;;;;18.42;10.13;;;-0.50;61.70;;;;;;5072750;28;20024;-20
2022/01/14 07:54:46;;;;;;;13.00;6.45;;;-0.40;62.00;;;;;;5072728;28;20048;-19
2022/01/14 07:57:12;;;;;;;14.57;8.40;;;-0.30;61.60;;;;;;5072842;28;20044;-20
2022/01/14 07:59:40;;;;;;;52.92;28.17;;;-0.20;61.80;;;;;;5073124;28;20030;-20
2022/01/14 08:02:07;;;;;;;34.42;17.58;;;-0.10;61.80;;;;;;5072831;28;20040;-19
2022/01/14 08:04:35;;;;;;;23.10;13.48;;;0.00;62.00;;;;;;5072549;28;20392;-20
2022/01/14 08:07:08;;;;;;;34.30;19.45;;;0.00;62.00;;;;;;5073077;28;20033;-20
2022/01/14 08:09:42;;;;;;;22.75;11.85;;;0.00;61.70;;;;;;5072861;28;20392;-19
2022/01/14 08:12:10;;;;;;;19.58;9.55;;;0.10;60.80;;;;;;5072779;28;20123;-20
2022/01/14 08:14:37;;;;;;;37.60;19.73;;;0.10;61.50;;;;;;5071294;28;20031;-19
2022/01/14 08:17:04;;;;;;;30.88;17.48;;;0.30;62.80;;;;;;5073016;28;20104;-20
2022/01/14 08:19:33;;;;;;;29.08;14.50;;;0.30;63.10;;;;;;5072894;28;20095;-20
2022/01/14 08:22:07;;;;;;;37.90;18.77;;;0.40;61.70;;;;;;5072905;28;20036;-20
2022/01/14 08:24:34;;;;;;;32.08;18.77;;;0.50;63.20;;;;;;5072566;28;20021;-20
2022/01/14 08:27:01;;;;;;;41.25;21.65;;;0.60;64.90;;;;;;5072555;28;20017;-20
2022/01/14 08:29:28;;;;;;;78.47;42.58;;;0.80;65.60;;;;;;5072893;28;20060;-20
2022/01/14 08:31:57;;;;;;;43.53;22.95;;;1.00;65.10;;;;;;5072568;28;20025;-20
2022/01/14 08:34:24;;;;;;;72.72;37.78;;;1.30;63.90;;;;;;5072838;28;20028;-20
2022/01/14 08:36:51;;;;;;;71.20;39.78;;;1.50;64.30;;;;;;5076456;28;20047;-18
2022/01/14 08:39:18;;;;;;;59.42;32.53;;;1.80;65.70;;;;;;5076548;28;20032;-22
2022/01/14 08:41:45;;;;;;;54.47;28.83;;;2.00;65.00;;;;;;5076192;28;20056;-19
2022/01/14 08:44:12;;;;;;;56.25;29.95;;;2.20;64.20;;;;;;5077428;28;20025;-20
2022/01/14 08:46:37;;;;;;;41.13;21.40;;;2.40;64.10;;;;;;5076034;28;20119;-20
2022/01/14 08:49:04;;;;;;;56.60;31.23;;;2.60;62.50;;;;;;5075953;28;20048;-19
2022/01/14 08:51:31;;;;;;;49.50;27.77;;;2.90;63.20;;;;;;5075989;28;20484;-19
2022/01/14 08:53:57;;;;;;;56.55;29.23;;;3.10;62.90;;;;;;5075858;28;20251;-19
2022/01/14 08:56:24;;;;;;;44.10;24.48;;;3.20;62.50;;;;;;5075700;28;20104;-20
2022/01/14 08:58:50;;;;;;;39.92;22.73;;;3.40;61.60;;;;;;5076118;28;20035;-19
2022/01/14 09:01:16;;;;;;;43.33;25.85;;;3.60;61.20;;;;;;5076044;28;20032;-20
2022/01/14 09:03:41;;;;;;;47.22;27.33;;;3.80;60.10;;;;;;5075624;28;20060;-20
2022/01/14 09:06:07;;;;;;;59.63;35.92;;;4.00;60.70;;;;;;5075956;28;20024;-20
2022/01/14 09:08:33;;;;;;;58.63;33.10;;;4.20;60.50;;;;;;5075816;28;20024;-20
2022/01/14 09:10:59;;;;;;;55.72;33.15;;;4.40;60.20;;;;;;5075663;28;20024;-20
2022/01/14 09:13:25;;;;;;;37.78;21.17;;;4.50;60.00;;;;;;5075951;28;20074;-20
2022/01/14 09:15:51;;;;;;;48.28;27.17;;;4.70;59.00;;;;;;5075577;28;20031;-21
2022/01/14 09:18:17;;;;;;;38.17;21.92;;;5.00;59.00;;;;;;5075787;28;20115;-22
2022/01/14 09:20:43;;;;;;;43.53;27.45;;;5.10;58.30;;;;;;5075774;28;20035;-21
2022/01/14 09:23:15;;;;;;;52.53;31.77;;;5.40;57.80;;;;;;5075495;28;20025;-20
2022/01/14 09:25:41;;;;;;;38.63;23.20;;;5.60;57.90;;;;;;5075712;28;20025;-21
2022/01/14 09:28:07;;;;;;;38.35;23.52;;;5.80;57.30;;;;;;5075685;28;20032;-21
2022/01/14 09:30:34;;;;;;;36.28;22.92;;;6.00;56.60;;;;;;5075220;28;20496;-21
2022/01/14 09:33:00;;;;;;;46.47;27.75;;;6.30;56.30;;;;;;5075147;28;20106;-23
2022/01/14 09:35:25;;;;;;;38.90;24.00;;;6.50;55.90;;;;;;5075153;28;20060;-21
2022/01/14 09:37:51;;;;;;;31.70;16.55;;;6.70;55.40;;;;;;5075175;28;20127;-21
2022/01/14 09:40:18;;;;;;;33.45;19.50;;;6.90;55.20;;;;;;5075185;28;20036;-21
2022/01/14 09:42:49;;;;;;;34.25;20.30;;;7.10;54.90;;;;;;5075117;28;20028;-21
2022/01/14 09:45:15;;;;;;;38.03;23.42;;;7.30;54.50;;;;;;5075030;28;20021;-21
2022/01/14 09:47:42;;;;;;;51.10;31.65;;;7.60;53.70;;;;;;5074391;28;20028;-21
2022/01/14 09:50:09;;;;;;;34.78;21.67;;;7.80;53.90;;;;;;5075252;28;20028;-21
2022/01/14 09:52:36;;;;;;;25.67;15.98;;;8.00;53.60;;;;;;5074701;28;20074;-21
2022/01/14 09:55:02;;;;;;;29.42;18.15;;;8.20;53.30;;;;;;5074587;28;20056;-21
2022/01/14 09:57:28;;;;;;;54.72;34.10;;;8.40;53.00;;;;;;5075047;28;20040;-20
2022/01/14 09:59:54;;;;;;;49.92;30.13;;;8.50;53.00;;;;;;5074822;28;20542;-21
2022/01/14 10:02:35;;;;;;;28.10;16.48;;;8.70;52.40;;;;;;5074782;28;20066;-21
2022/01/14 10:05:03;;;;;;;34.50;21.30;;;8.90;52.60;;;;;;5074621;28;20021;-20
2022/01/14 10:07:30;;;;;;;25.30;15.52;;;9.10;52.60;;;;;;5074891;28;20029;-20
2022/01/14 10:09:59;;;;;;;27.83;16.92;;;9.30;52.40;;;;;;5074518;28;20055;-21
2022/01/14 10:12:35;;;;;;;40.30;27.00;;;9.50;52.30;;;;;;5074246;28;20025;-21
2022/01/14 10:15:09;;;;;;;48.00;31.58;;;9.80;52.10;;;;;;5074509;28;20025;-20
2022/01/14 10:17:36;;;;;;;22.38;14.77;;;10.00;51.10;;;;;;5074357;28;20538;-21
2022/01/14 10:20:04;;;;;;;46.47;30.92;;;10.20;51.50;;;;;;5074335;28;20100;-21
2022/01/14 10:22:33;;;;;;;46.85;27.60;;;10.40;51.40;;;;;;5074335;28;20033;-21
2022/01/14 10:25:09;;;;;;;46.28;29.52;;;10.60;51.00;;;;;;5074545;28;20061;-21
2022/01/14 10:27:36;;;;;;;44.88;26.63;;;10.80;50.70;;;;;;5074794;28;20063;-21
2022/01/14 10:30:21;;;;;;;41.90;27.27;;;11.00;50.50;;;;;;5074319;28;20025;-21
2022/01/14 10:32:53;;;;;;;38.88;27.02;;;11.20;49.50;;;;;;5074095;28;20047;-20
2022/01/14 10:35:22;;;;;;;37.35;24.05;;;11.40;50.00;;;;;;5073992;28;20082;-20
2022/01/14 10:37:47;;;;;;;37.03;24.48;;;11.50;49.40;;;;;;5074170;28;20043;-20
2022/01/14 10:40:25;;;;;;;35.67;22.17;;;11.70;49.10;;;;;;5073739;28;20455;-21
2022/01/14 10:43:03;;;;;;;42.78;28.02;;;11.90;49.00;;;;;;5074233;28;20059;-20
2022/01/14 10:45:29;;;;;;;42.15;25.50;;;12.00;48.50;;;;;;5074192;28;20034;-21
2022/01/14 10:48:05;;;;;;;48.70;32.35;;;12.20;47.70;;;;;;5073795;28;20021;-21
2022/01/14 10:50:46;;;;;;;38.92;27.58;;;12.30;47.40;;;;;;5073899;28;20054;-20
2022/01/14 10:53:14;;;;;;;35.33;23.73;;;12.40;48.50;;;;;;5074350;28;20023;-21
2022/01/14 10:55:42;;;;;;;31.73;21.02;;;12.40;48.50;;;;;;5073489;28;20131;-21
2022/01/14 10:58:29;;;;;;;30.50;20.23;;;12.60;47.80;;;;;;5073115;28;20036;-21
2022/01/14 11:00:59;;;;;;;32.40;21.05;;;12.60;46.70;;;;;;5073928;28;20028;-21
2022/01/14 11:03:45;;;;;;;30.73;20.38;;;12.80;46.90;;;;;;5073407;28;20381;-20
2022/01/14 11:06:40;;;;;;;20.63;13.93;;;12.90;47.70;;;;;;5073617;28;20023;-21
2022/01/14 11:09:06;;;;;;;27.90;19.20;;;13.10;47.00;;;;;;5073406;28;20041;-21
2022/01/14 11:11:35;;;;;;;30.38;21.15;;;13.40;46.60;;;;;;5073351;28;20107;-21
2022/01/14 11:14:01;;;;;;;27.65;18.85;;;13.80;46.90;;;;;;5073688;28;20021;-20
2022/01/14 11:16:27;;;;;;;25.98;18.55;;;14.00;46.80;;;;;;5073146;28;20033;-20
2022/01/14 11:18:58;;;;;;;25.77;17.17;;;14.40;46.20;;;;;;5073104;28;20032;-21
2022/01/14 11:24:19;;;;;;;37.25;25.27;;;14.70;44.20;;;;;;5073626;28;20098;-21
2022/01/14 11:26:48;;;;;;;31.08;20.27;;;14.90;44.00;;;;;;5073576;28;20025;-21
2022/01/14 11:29:20;;;;;;;29.67;19.85;;;15.10;44.30;;;;;;5071997;28;20063;-20
2022/01/14 11:31:57;;;;;;;28.75;19.40;;;15.40;44.40;;;;;;5074320;28;20024;-20
2022/01/14 11:34:37;;;;;;;42.35;29.05;;;15.70;43.30;;;;;;5072949;28;20052;-21
2022/01/14 11:37:06;;;;;;;34.72;24.30;;;16.00;41.80;;;;;;5073065;28;20031;-21
2022/01/14 11:39:36;;;;;;;25.00;17.13;;;16.30;41.90;;;;;;5073177;28;20021;-21
2022/01/14 11:42:08;;;;;;;20.77;14.63;;;16.50;42.20;;;;;;5073355;28;20024;-21
2022/01/14 11:44:53;;;;;;;26.88;19.17;;;16.90;42.50;;;;;;5073017;28;20032;-20
2022/01/14 11:47:35;;;;;;;21.83;15.02;;;17.30;41.60;;;;;;5073028;28;20081;-20
2022/01/14 11:50:05;;;;;;;18.55;12.68;;;17.70;41.30;;;;;;5073195;28;20060;-21
2022/01/14 11:52:48;;;;;;;19.40;12.68;;;18.10;40.90;;;;;;5072739;28;20021;-20
2022/01/14 11:55:23;;;;;;;17.23;12.53;;;18.50;40.00;;;;;;5072745;28;20052;-20
2022/01/14 11:57:51;;;;;;;18.52;13.10;;;18.90;39.50;;;;;;5072820;28;20275;-21
2022/01/14 12:00:33;;;;;;;20.52;14.55;;;19.30;39.50;;;;;;5072924;28;20032;-21
2022/01/14 12:03:13;;;;;;;24.60;14.43;;;19.60;37.90;;;;;;5073216;28;20033;-21
2022/01/14 12:06:02;;;;;;;18.73;12.43;;;20.00;38.50;;;;;;5073170;28;20024;-21
2022/01/14 12:08:30;;;;;;;16.50;11.35;;;20.40;38.10;;;;;;5072699;28;20039;-21
2022/01/14 12:10:59;;;;;;;18.48;12.85;;;20.70;37.90;;;;;;5076371;28;20031;-21
2022/01/14 12:18:58;;;;;;;25.17;18.33;;;21.70;36.80;;;;;;5076577;28;20102;-21
2022/01/14 12:21:45;;;;;;;15.07;10.45;;;22.10;36.30;;;;;;5076795;28;20390;-22
2022/01/14 12:24:19;;;;;;;21.77;16.05;;;22.40;35.60;;;;;;5076905;28;20094;-21
2022/01/14 12:26:54;;;;;;;13.15;9.63;;;22.60;35.40;;;;;;5076544;28;20063;-21
2022/01/14 12:29:46;;;;;;;17.50;12.90;;;22.90;35.10;;;;;;5076376;28;20027;-20
2022/01/14 12:32:33;;;;;;;15.68;11.88;;;23.20;34.70;;;;;;5076219;28;20476;-21
2022/01/14 12:35:09;;;;;;;27.88;17.33;;;23.50;34.40;;;;;;5076313;28;20024;-21
2022/01/14 12:37:43;;;;;;;18.83;14.88;;;23.90;34.40;;;;;;5076222;28;20115;-21
2022/01/14 12:40:21;;;;;;;18.95;14.70;;;24.10;33.30;;;;;;5076534;28;20365;-21
2022/01/14 12:42:53;;;;;;;18.95;13.43;;;24.20;32.90;;;;;;5076464;28;20607;-21
2022/01/14 12:45:29;;;;;;;21.80;16.23;;;24.40;33.20;;;;;;5076464;28;20381;-21
2022/01/14 12:48:05;;;;;;;18.08;13.73;;;24.50;33.10;;;;;;5076155;28;20027;-21
2022/01/14 12:50:32;;;;;;;17.42;13.07;;;24.40;33.10;;;;;;5076223;28;20174;-21
2022/01/14 12:53:01;;;;;;;24.65;17.95;;;24.20;33.60;;;;;;5076053;28;20043;-21
2022/01/14 12:55:26;;;;;;;25.90;18.80;;;23.90;33.10;;;;;;5075865;28;20052;-21
2022/01/14 12:57:57;;;;;;;22.65;17.75;;;23.60;33.30;;;;;;5075842;28;20032;-21
2022/01/14 13:00:23;;;;;;;23.27;17.50;;;23.50;33.10;;;;;;5076035;28;20016;-21
2022/01/14 13:02:50;;;;;;;19.58;16.25;;;23.40;33.10;;;;;;5075761;28;20388;-21
2022/01/14 13:05:20;;;;;;;24.08;17.27;;;23.30;33.90;;;;;;5076021;28;20021;-21
2022/01/14 13:07:46;;;;;;;20.27;15.55;;;23.20;33.80;;;;;;5076151;28;20094;-22
2022/01/14 13:10:15;;;;;;;16.33;13.25;;;23.00;33.40;;;;;;5075795;28;20029;-22
2022/01/14 13:12:43;;;;;;;15.80;11.30;;;22.70;34.00;;;;;;5076001;28;20028;-21
2022/01/14 13:15:18;;;;;;;16.45;11.48;;;22.50;34.40;;;;;;5075632;28;20036;-21